• Join FlightAware (Why Join?)
  • Login
  • US Flag 
02:27PM EST


 

Airport Tracker/Info


-or-


 

Live Flight TrackerFlight Track Log ✈ UAL407 ✈ 12-May-2013 ✈ KLAX - KEWR

Flight Track Log - Related Links

Times and Time Zones

All times are in EDT time to prevent confusion due to time zone crossing. See the UAL407 flight status page for this flight to view local times or setup timezone preferences in your user account.

Time Position Orientation Groundspeed Altitude Reporting Facility
EDT Latitude Longitude Course Direction KTS MPH feet Rate Location/Type
11:19AM 33.9333 -118.4500 55° Northeast 203 234 1,200  Level Southern California TRACON
11:20AM 33.9064 -118.5431 251° West 243 280 3,900 2,280 Climbing Los Angeles Center
11:21AM 34.1180 -118.0974 59° Northeast  Level FlightAware Approximate
11:21AM 33.8522 -118.5667 200° South 253 291 6,400  Level Los Angeles Center
11:22AM 34.1805 -117.9725 59° Northeast  Level FlightAware Approximate
11:22AM 33.8678 -118.4919 76° East 262 302 8,800  Level Los Angeles Center
11:23AM 34.2450 -117.8492 51° Northeast  Level FlightAware Approximate
11:23AM 33.9167 -118.4458 38° Northeast 273 314 10,600  Level Los Angeles Center
11:24AM 34.3123 -117.7327 55° Northeast  Level FlightAware Approximate
11:24AM 33.9814 -118.3483 51° Northeast 310 357 13,000  Level Los Angeles Center
11:25AM 34.0336 -118.2583 55° Northeast 321 369 15,300 2,100 Climbing Los Angeles Center
11:26AM 34.0883 -118.1619 56° Northeast 337 388 17,400 2,040 Climbing Los Angeles Center
11:27AM 34.1433 -118.0636 56° Northeast 348 400 19,500 1,980 Climbing Los Angeles Center
11:28AM 34.1994 -117.9639 56° Northeast 355 409 21,500 1,740 Climbing Los Angeles Center
11:29AM 34.2561 -117.8628 56° Northeast 361 415 23,200 1,560 Climbing Los Angeles Center
11:30AM 34.3156 -117.7594 55° Northeast 370 426 24,700 900 Climbing Los Angeles Center
11:31AM 34.3814 -117.6617 51° Northeast 374 430 25,100 780 Climbing Los Angeles Center
11:33AM 34.4764 -117.5289 49° Northeast 375 432 26,600 1,080 Climbing Los Angeles Center
11:34AM 34.5453 -117.4300 50° Northeast 382 440 27,900 1,140 Climbing Los Angeles Center
11:35AM 34.6306 -117.3075 50° Northeast 393 452 29,500 1,260 Climbing Los Angeles Center
11:36AM 34.7156 -117.1847 50° Northeast 398 458 30,800 1,020 Climbing Los Angeles Center
11:37AM 34.7878 -117.0786 50° Northeast 408 470 31,700 1,020 Climbing Los Angeles Center
11:38AM 34.8608 -116.9733 50° Northeast 410 472 33,000 1,320 Climbing Los Angeles Center
11:39AM 34.9444 -116.8483 51° Northeast 401 461 34,500 960 Climbing Los Angeles Center
11:40AM 35.0144 -116.7469 50° Northeast 395 455 35,000 240 Climbing Los Angeles Center
11:41AM 35.0842 -116.6453 50° Northeast 392 451 35,000  Level Los Angeles Center
11:42AM 35.1531 -116.5411 51° Northeast 395 455 35,000  Level Los Angeles Center
11:43AM 35.2256 -116.4386 49° Northeast 398 458 35,000  Level Los Angeles Center
11:44AM 35.2958 -116.3342 50° Northeast 398 458 35,000  Level Los Angeles Center
11:45AM 35.3800 -116.2108 50° Northeast 396 456 35,000  Level Los Angeles Center
11:46AM 35.4494 -116.1053 51° Northeast 397 457 35,000  Level Los Angeles Center
11:47AM 35.5208 -116.0039 49° Northeast 393 452 35,000  Level Los Angeles Center
11:49AM 35.5894 -115.8997 51° Northeast 393 452 35,000  Level Los Angeles Center
11:50AM 35.6647 -115.7853 51° Northeast 393 452 35,000  Level Los Angeles Center
11:51AM 35.7208 -115.7039 50° Northeast 392 451 35,000  Level Los Angeles Center
11:52AM 35.8022 -115.5803 51° Northeast 389 448 35,000  Level Los Angeles Center
11:53AM 35.8706 -115.4769 51° Northeast 390 449 35,000  Level Los Angeles Center
11:54AM 35.9386 -115.3728 51° Northeast 392 451 35,000  Level Los Angeles Center
11:55AM 36.0189 -115.2508 51° Northeast 383 441 35,000  Level Los Angeles Center
11:56AM 36.0719 -115.1678 52° Northeast 385 443 35,000  Level Los Angeles Center
11:57AM 36.1231 -115.0167 67° East 400 460 35,000  Level Los Angeles Center
11:58AM 36.1689 -114.8614 70° East 401 461 35,000  Level Los Angeles Center
11:59AM 36.2078 -114.7317 70° East 404 465 35,000  Level Los Angeles Center
12:00PM 36.2472 -114.6033 69° East 401 461 35,000  Level Los Angeles Center
12:01PM 36.2942 -114.4494 69° East 400 460 35,000  Level Los Angeles Center
12:02PM 36.3336 -114.3211 69° East 400 460 35,000  Level Los Angeles Center
12:03PM 36.3722 -114.1928 69° East 398 458 35,000  Level Los Angeles Center
12:04PM 36.4100 -114.0639 70° East 399 459 35,000  Level Los Angeles Center
12:05PM 36.4403 -113.9608 70° East 398 458 35,000  Level Los Angeles Center
12:06PM 36.4850 -113.8072 70° East 396 456 35,000  Level Los Angeles Center
12:07PM 36.5242 -113.6731 70° East 393 452 35,000  Level Los Angeles Center
12:08PM 36.5606 -113.5464 70° East 392 451 35,000  Level Los Angeles Center
12:10PM 36.5969 -113.4203 70° East 390 449 35,000  Level Los Angeles Center
12:11PM 36.6386 -113.2408 74° East 388 447 35,000  Level Los Angeles Center
12:12PM 36.6575 -113.1061 80° East 394 453 35,000  Level Los Angeles Center
12:13PM 36.6769 -112.9719 80° East 395 455 35,000  Level Los Angeles Center
12:14PM 36.7006 -112.8125 79° East 393 452 35,000  Level Los Angeles Center
12:15PM 36.7194 -112.6800 80° East 392 451 35,000  Level Los Angeles Center
12:16PM 36.7428 -112.5211 80° East 391 450 35,000  Level Los Angeles Center
12:17PM 36.7589 -112.4156 79° East 390 449 35,000  Level Los Angeles Center
12:18PM 36.7811 -112.2572 80° East 389 448 35,000  Level Los Angeles Center
12:19PM 36.7989 -112.1261 80° East 388 447 35,000  Level Los Angeles Center
12:19PM 36.8022 -112.0997 81° East 389 448 35,000  Level Denver Center
12:20PM 36.8253 -111.9406 80° East 390 449 35,000  Level Denver Center
12:21PM 36.8436 -111.8086 80° East 390 449 35,000  Level Denver Center
12:22PM 36.8639 -111.6750 79° East 392 451 35,000  Level Denver Center
12:23PM 36.8811 -111.5408 81° East 394 453 35,000  Level Denver Center
12:24PM 36.9003 -111.4072 80° East 393 452 35,000  Level Denver Center
12:25PM 36.9181 -111.2722 81° East 395 455 35,000  Level Denver Center
12:26PM 36.9375 -111.1139 81° East 393 452 35,000  Level Denver Center
12:28PM 36.9556 -110.9800 80° East 394 453 35,000  Level Denver Center
12:29PM 36.9719 -110.8456 81° East 394 453 35,000  Level Denver Center
12:30PM 36.9897 -110.7119 81° East 390 449 35,000  Level Denver Center
12:31PM 37.0075 -110.5778 81° East 393 452 35,000  Level Denver Center
12:32PM 37.0269 -110.4181 81° East 388 447 35,000  Level Denver Center
12:33PM 37.0439 -110.2853 81° East 389 448 35,000  Level Denver Center
12:34PM 37.0586 -110.1636 81° East 386 444 35,000  Level Denver Center
12:35PM 37.0783 -110.0161 80° East 383 441 35,000  Level Denver Center
12:36PM 37.0933 -109.8897 81° East 383 441 35,000  Level Denver Center
12:37PM 37.1114 -109.7414 81° East 383 441 35,000  Level Denver Center
12:38PM 37.1267 -109.6139 81° East 387 445 35,000  Level Denver Center
12:39PM 37.1436 -109.4661 82° East 383 441 35,000  Level Denver Center
12:40PM 37.1592 -109.3392 81° East 385 443 35,000  Level Denver Center
12:41PM 37.1775 -109.1719 82° East 380 437 35,000  Level Denver Center
12:42PM 37.1922 -109.0456 82° East 380 437 35,000  Level Denver Center
12:43PM 37.2086 -108.8981 82° East 382 440 35,000  Level Denver Center
12:44PM 37.2222 -108.7728 82° East 380 437 35,000  Level Denver Center
12:45PM 37.2392 -108.6239 82° East 383 441 35,000  Level Denver Center
12:46PM 37.2536 -108.4983 82° East 381 438 35,000  Level Denver Center
12:47PM 37.2700 -108.3503 82° East 382 440 35,000  Level Denver Center
12:48PM 37.2831 -108.2239 83° East 382 440 35,000  Level Denver Center
12:49PM 37.2964 -108.0983 82° East 380 437 35,000  Level Denver Center
12:50PM 37.3119 -107.9514 82° East 380 437 35,000  Level Denver Center
12:52PM 37.3247 -107.8247 83° East 383 441 35,000  Level Denver Center
12:53PM 37.3406 -107.6750 82° East 385 443 35,000  Level Denver Center
12:54PM 37.3536 -107.5478 83° East 383 441 35,000  Level Denver Center
12:55PM 37.3689 -107.3969 83° East 387 445 35,000  Level Denver Center
12:56PM 37.3811 -107.2683 83° East 387 445 35,000  Level Denver Center
12:57PM 37.3967 -107.1211 82° East 382 440 35,000  Level Denver Center
12:58PM 37.4083 -106.9936 83° East 382 440 35,000  Level Denver Center
12:59PM 37.4225 -106.8461 83° East 381 438 35,000  Level Denver Center
01:00PM 37.4342 -106.7189 83° East 381 438 35,000  Level Denver Center
01:01PM 37.4483 -106.5728 83° East 378 435 35,000  Level Denver Center
01:02PM 37.4597 -106.4469 83° East 379 436 35,000  Level Denver Center
01:03PM 37.4719 -106.3214 83° East 378 435 35,000  Level Denver Center
01:04PM 37.4856 -106.1711 83° East 383 441 35,000  Level Denver Center
01:05PM 37.4944 -106.0431 85° East 383 441 35,000  Level Denver Center
01:06PM 37.5131 -105.8958 81° East 381 438 35,000  Level Denver Center
01:07PM 37.5331 -105.7714 79° East 379 436 35,000  Level Denver Center
01:08PM 37.5542 -105.6214 80° East 382 440 35,000 -60 Level Denver Center
01:09PM 37.5758 -105.4719 80° East 388 447 34,900 -360 Descending Denver Center
01:10PM 37.5978 -105.3211 80° East 393 452 34,300 -480 Descending Denver Center
01:11PM 37.6153 -105.1908 80° East 393 452 34,000 -180 Descending Denver Center
01:12PM 37.6403 -105.0375 78° East 398 458 34,000  Level Denver Center
01:13PM 37.6589 -104.9044 80° East 401 461 34,000  Level Denver Center
01:14PM 37.6811 -104.7503 80° East 399 459 34,000  Level Denver Center
01:16PM 37.6981 -104.6178 81° East 399 459 34,000 60 Level Denver Center
01:17PM 37.7192 -104.4650 80° East 395 455 34,200 240 Climbing Denver Center
01:18PM 37.7369 -104.3350 80° East 391 450 34,600 360 Climbing Denver Center
01:19PM 37.7553 -104.2036 80° East 393 452 35,000 180 Climbing Denver Center
01:20PM 37.7764 -104.0464 80° East 400 460 35,000  Level Denver Center
01:21PM 37.7928 -103.9142 81° East 397 457 35,000  Level Denver Center
01:22PM 37.8128 -103.7617 81° East 392 451 35,000  Level Denver Center
01:23PM 37.8292 -103.6333 81° East 386 444 35,000  Level Denver Center
01:24PM 37.8483 -103.4836 81° East 386 444 35,000  Level Denver Center
01:25PM 37.8639 -103.3550 81° East 386 444 35,000  Level Denver Center
01:26PM 37.8814 -103.2250 80° East 389 448 35,000  Level Denver Center
01:27PM 37.8983 -103.0719 82° East 392 451 35,000  Level Denver Center
01:28PM 37.9164 -102.9406 80° East 394 453 35,000  Level Denver Center
01:29PM 37.9344 -102.7853 82° East 399 459 35,000  Level Denver Center
01:30PM 37.9503 -102.6533 81° East 397 457 35,000  Level Denver Center
01:31PM 37.9689 -102.5000 81° East 395 455 35,000  Level Denver Center
01:32PM 37.9844 -102.3725 81° East 397 457 35,000  Level Denver Center
01:33PM 37.9903 -102.2122 87° East 407 468 35,000  Level Denver Center
01:34PM 37.9911 -102.0722 90° East 414 476 35,000  Level Denver Center
01:35PM 37.9936 -101.9083 89° East 417 480 35,000  Level Denver Center
01:36PM 37.9958 -101.7686 89° East 415 478 35,000  Level Denver Center
01:37PM 37.9969 -101.6017 89° East 424 488 35,000  Level Denver Center
01:38PM 37.9978 -101.4361 90° East 421 484 35,000  Level Denver Center
01:39PM 37.9994 -101.2697 89° East 420 483 35,000  Level Denver Center
01:41PM 38.0003 -101.1256 90° East 425 489 35,000  Level Denver Center
01:42PM 38.0011 -100.9336 90° East 424 488 35,000  Level Denver Center
01:43PM 38.0019 -100.7403 90° East 426 490 35,000  Level Denver Center
01:44PM 38.0022 -100.5944 90° East 427 491 35,000  Level Kansas City Center
01:45PM 38.0006 -100.4511 91° East 425 489 35,000  Level Kansas City Center
01:46PM 38.0006 -100.2833 90° East 426 490 35,000  Level Kansas City Center
01:47PM 38.0003 -100.1383 90° East 428 493 35,000  Level Kansas City Center
01:48PM 37.9994 -99.9925 90° East 429 494 35,000  Level Kansas City Center
01:49PM 38.0000 -99.8233 90° East 430 495 35,000  Level Kansas City Center
01:50PM 38.0019 -99.6789 89° East 430 495 35,000 60 Level Kansas City Center
01:51PM 38.0033 -99.5072 89° East 433 498 35,200 480 Climbing Kansas City Center
01:52PM 38.0022 -99.3700 91° East 435 501 36,000 900 Climbing Kansas City Center
01:53PM 38.0028 -99.2161 90° East 437 503 37,100 1,020 Climbing Kansas City Center
01:54PM 38.0039 -99.0339 90° East 432 497 38,100 540 Climbing Kansas City Center
01:55PM 38.0039 -98.8814 90° East 433 498 38,300 240 Climbing Kansas City Center
01:56PM 38.0044 -98.7247 90° East 443 510 38,700 300 Climbing Kansas City Center
01:57PM 38.0044 -98.5664 90° East 448 516 39,000 120 Climbing Kansas City Center
01:58PM 38.0044 -98.4067 90° East 453 521 39,000  Level Kansas City Center
01:59PM 38.0036 -98.2461 90° East 456 525 39,000  Level Kansas City Center
02:01PM 38.0019 -98.0728 91° East 462 532 39,000  Level Kansas City Center
02:02PM 38.0108 -97.9078 86° East 468 539 39,000  Level Kansas City Center
02:03PM 38.0400 -97.7461 77° East 462 532 39,000  Level Kansas City Center
02:04PM 38.0694 -97.5503 79° East 470 541 39,000  Level Kansas City Center
02:05PM 38.0936 -97.3919 79° East 469 540 39,000  Level Kansas City Center
02:06PM 38.1189 -97.2300 79° East 468 539 39,000  Level Kansas City Center
02:07PM 38.1428 -97.0675 79° East 468 539 39,000  Level Kansas City Center
02:08PM 38.1664 -96.9061 79° East 467 537 39,000  Level Kansas City Center
02:09PM 38.1847 -96.7439 82° East 466 536 39,000  Level Kansas City Center
02:10PM 38.1928 -96.5775 86° East 470 541 39,000  Level Kansas City Center
02:11PM 38.2008 -96.3861 87° East 466 536 39,000  Level Kansas City Center
02:12PM 38.2081 -96.2283 87° East 468 539 39,000  Level Kansas City Center
02:13PM 38.2158 -96.0411 87° East 476 548 39,000  Level Kansas City Center
02:14PM 38.2225 -95.8806 87° East 476 548 39,000  Level Kansas City Center
02:15PM 38.2294 -95.6947 87° East 473 544 39,000  Level Kansas City Center
02:16PM 38.2358 -95.5328 87° East 478 550 39,000  Level Kansas City Center
02:17PM 38.2433 -95.3458 87° East 476 548 39,000  Level Kansas City Center
02:18PM 38.2481 -95.1850 88° East 477 549 39,000  Level Kansas City Center
02:19PM 38.2547 -94.9953 87° East 479 551 39,000  Level Kansas City Center
02:20PM 38.2608 -94.8314 87° East 482 555 39,000  Level Kansas City Center
02:21PM 38.2675 -94.6403 87° East 484 557 39,000  Level Kansas City Center
02:22PM 38.2753 -94.4781 86° East 483 556 39,000  Level Kansas City Center
02:23PM 38.3083 -94.3211 75° East 478 550 39,000  Level Kansas City Center
02:24PM 38.3494 -94.1414 74° East 476 548 39,000  Level Kansas City Center
02:25PM 38.3847 -93.9831 74° East 477 549 39,000  Level Kansas City Center
02:26PM 38.4214 -93.8181 74° East 480 552 39,000  Level Kansas City Center
02:27PM 38.4592 -93.6506 74° East 485 558 39,000  Level Kansas City Center
02:28PM 38.5036 -93.4511 74° East 485 558 39,000  Level Kansas City Center
02:29PM 38.5406 -93.2819 74° East 489 563 39,000  Level Kansas City Center
02:30PM 38.5775 -93.1147 74° East 488 562 39,000  Level Kansas City Center
02:31PM 38.6144 -92.9453 74° East 489 563 39,000  Level Kansas City Center
02:32PM 38.6500 -92.7761 75° East 490 564 39,000  Level Kansas City Center
02:33PM 38.6858 -92.6044 75° East 492 566 39,000  Level Kansas City Center
02:35PM 38.7211 -92.4358 75° East 490 564 39,000  Level Kansas City Center
02:36PM 38.7561 -92.2642 75° East 491 565 39,000  Level Kansas City Center
02:37PM 38.7908 -92.0942 75° East 490 564 39,000  Level Kansas City Center
02:38PM 38.8319 -91.8900 75° East 491 565 39,000  Level Kansas City Center
02:39PM 38.8600 -91.7556 75° East 487 560 39,000  Level Kansas City Center
02:40PM 38.8969 -91.5714 75° East 487 560 39,000  Level Kansas City Center
02:41PM 38.9314 -91.4039 75° East 485 558 39,000  Level Kansas City Center
02:42PM 38.9644 -91.2358 76° East 485 558 39,000  Level Kansas City Center
02:43PM 39.0053 -91.0331 75° East 487 560 39,000  Level Kansas City Center
02:44PM 39.0389 -90.8625 76° East 489 563 39,000  Level Kansas City Center
02:45PM 39.0725 -90.6900 76° East 493 567 39,000  Level Kansas City Center
02:46PM 39.1069 -90.5156 76° East 497 572 39,000  Level Kansas City Center
02:47PM 39.1397 -90.3411 76° East 498 573 39,000  Level Kansas City Center
02:48PM 39.1714 -90.1669 77° East 497 572 39,000  Level Kansas City Center
02:49PM 39.2033 -89.9922 77° East 498 573 39,000  Level Kansas City Center
02:50PM 39.2361 -89.8183 76° East 498 573 39,000  Level Kansas City Center
02:51PM 39.2739 -89.6094 77° East 497 572 39,000  Level Kansas City Center
02:52PM 39.3058 -89.4339 77° East 500 575 39,000  Level Kansas City Center
02:53PM 39.3375 -89.2611 77° East 498 573 39,000  Level Kansas City Center
02:54PM 39.3686 -89.0878 77° East 497 572 39,000  Level Kansas City Center
02:55PM 39.3978 -88.9131 78° East 498 573 39,000  Level Kansas City Center
02:56PM 39.4339 -88.7072 77° East 500 575 39,000  Level Kansas City Center
02:57PM 39.4611 -88.5533 77° East 499 574 39,000  Level Kansas City Center
02:58PM 39.4908 -88.3783 78° East 496 571 39,000  Level Kansas City Center
02:59PM 39.5289 -88.1636 77° East 502 578 39,000  Level Kansas City Center
03:00PM 39.5572 -87.9881 78° East 500 575 39,000  Level Kansas City Center
03:01PM 39.5864 -87.8114 78° East 499 574 39,000  Level Kansas City Center
03:02PM 39.6019 -87.7097 79° East 497 572 39,000  Level Indianapolis Center
03:03PM 39.6308 -87.5342 78° East 498 573 39,000  Level Indianapolis Center
03:04PM 39.6658 -87.3225 78° East 500 575 39,000  Level Indianapolis Center
03:05PM 39.6933 -87.1456 79° East 502 578 39,000  Level Indianapolis Center
03:06PM 39.7225 -86.9686 78° East 503 579 39,000  Level Indianapolis Center
03:07PM 39.7506 -86.7906 78° East 504 580 39,000  Level Indianapolis Center
03:08PM 39.7778 -86.6128 79° East 502 578 39,000  Level Indianapolis Center
03:09PM 39.8053 -86.4322 79° East 505 581 39,000  Level Indianapolis Center
03:10PM 39.8408 -86.2450 76° East 505 581 39,000  Level Indianapolis Center
03:11PM 39.8781 -86.0706 74° East 504 580 39,000  Level Indianapolis Center
03:12PM 39.9153 -85.8947 75° East 503 579 39,000  Level Indianapolis Center
03:13PM 39.9594 -85.6839 75° East 504 580 39,000  Level Indianapolis Center
03:14PM 39.9969 -85.5072 74° East 507 583 39,000  Level Indianapolis Center
03:15PM 40.0331 -85.3308 75° East 506 582 39,000  Level Indianapolis Center
03:16PM 40.0686 -85.1531 75° East 507 583 39,000  Level Indianapolis Center
03:18PM 40.1208 -84.9833 68° East 506 582 39,000  Level Indianapolis Center
03:19PM 40.1939 -84.8061 62° Northeast 505 581 39,000  Level Indianapolis Center
03:20PM 40.2617 -84.6414 62° Northeast 507 583 39,000  Level Indianapolis Center
03:21PM 40.3283 -84.4775 62° Northeast 506 582 39,000  Level Indianapolis Center
03:22PM 40.3947 -84.3125 62° Northeast 505 581 39,000  Level Indianapolis Center
03:23PM 40.4611 -84.1472 62° Northeast 504 580 39,000  Level Indianapolis Center
03:24PM 40.5386 -83.9556 62° Northeast 503 579 39,000  Level Indianapolis Center
03:25PM 40.6033 -83.7889 63° Northeast 505 581 39,000  Level Indianapolis Center
03:26PM 40.6692 -83.6236 62° Northeast 503 579 39,000  Level Indianapolis Center
03:26PM 40.6931 -83.5708 59° Northeast 498 573 39,000  Level Cleveland Center
03:27PM 40.7533 -83.4064 64° Northeast 504 580 39,000  Level Cleveland Center
03:28PM 40.8050 -83.2550 66° East 509 586 39,000  Level Cleveland Center
03:29PM 40.8469 -83.0592 74° East 504 580 39,000  Level Cleveland Center
03:30PM 40.8836 -82.9011 73° East 498 573 39,000  Level Cleveland Center
03:31PM 40.9247 -82.7211 73° East 498 573 39,000  Level Cleveland Center
03:32PM 40.9656 -82.5436 73° East 498 573 39,000  Level Cleveland Center
03:33PM 41.0058 -82.3633 73° East 493 567 39,000  Level Cleveland Center
03:34PM 41.0461 -82.1856 73° East 493 567 39,000  Level Cleveland Center
03:35PM 41.0839 -82.0044 74° East 493 567 39,000  Level Cleveland Center
03:36PM 41.1236 -81.8264 73° East 493 567 39,000  Level Cleveland Center
03:37PM 41.1650 -81.6422 73° East 498 573 39,000  Level Cleveland Center
03:38PM 41.2019 -81.4633 75° East 498 573 39,000  Level Cleveland Center
03:39PM 41.2386 -81.2844 75° East 498 573 39,000  Level Cleveland Center
03:40PM 41.2750 -81.1025 75° East 498 573 39,000  Level Cleveland Center
03:41PM 41.3133 -80.9203 74° East 509 586 39,000  Level Cleveland Center
03:42PM 41.3511 -80.7381 75° East 509 586 39,000  Level Cleveland Center
03:43PM 41.3908 -80.5500 74° East 509 586 39,000  Level Cleveland Center
03:44PM 41.4325 -80.3506 74° East 509 586 39,000  Level Cleveland Center
03:45PM 41.4672 -80.1869 74° East 509 586 39,000  Level Cleveland Center
03:46PM 41.5061 -79.9869 75° East 509 586 39,000  Level Cleveland Center
03:47PM 41.5406 -79.8036 76° East 509 586 39,000  Level Cleveland Center
03:48PM 41.5472 -79.6178 87° East 509 586 39,000  Level Cleveland Center
03:49PM 41.5456 -79.4289 91° East 504 580 39,000  Level Cleveland Center
03:50PM 41.5436 -79.2431 91° East 499 574 39,000  Level Cleveland Center
03:51PM 41.5392 -79.0544 92° East 494 568 39,000 -300 Level Cleveland Center
03:52PM 41.5344 -78.8661 92° East 494 568 38,500 -900 Descending Cleveland Center
03:53PM 41.5314 -78.6775 91° East 494 568 37,300 -1,020 Descending Cleveland Center
03:54PM 41.5264 -78.5114 92° East 494 568 36,500 -660 Descending Cleveland Center
03:55PM 41.5217 -78.3081 92° East 501 577 36,000 -900 Descending New York Center
03:56PM 41.5169 -78.1189 92° East 507 583 34,700 -2,100 Descending New York Center
03:57PM 41.5072 -77.9378 94° East 501 577 31,800 -1,860 Descending New York Center
03:58PM 41.4808 -77.7494 101° East 506 582 31,000 -420 Descending New York Center
03:59PM 41.4542 -77.5639 101° East 506 582 31,000 -240 Level New York Center
04:00PM 41.4219 -77.3586 102° East 519 597 30,600 -720 Descending New York Center
04:01PM 41.3961 -77.1817 101° East 498 573 29,600 -1,080 Descending New York Center
04:02PM 41.3717 -77.0161 101° East 477 549 28,500 -1,380 Descending New York Center
04:03PM 41.3486 -76.8622 101° East 451 519 27,000 -1,560 Descending New York Center
04:04PM 41.3206 -76.7131 104° East 428 493 25,500 -1,560 Descending New York Center
04:05PM 41.2836 -76.5772 110° East 406 467 23,900 -1,620 Descending New York Center
04:06PM 41.2497 -76.4583 111° Southeast 384 442 22,300 -1,680 Descending New York Center
04:07PM 41.2164 -76.3289 109° East 377 434 20,600 -1,680 Descending New York Center
04:08PM 41.1811 -76.1908 109° East 384 442 19,000 -1,800 Descending New York Center
04:09PM 41.1400 -76.0414 110° East 401 461 17,100 -1,680 Descending New York Center
04:10PM 41.1042 -75.9092 110° East 396 456 15,700 -1,320 Descending New York Center
04:11PM 41.0681 -75.7772 110° East 391 450 14,500 -1,260 Descending New York Center
04:12PM 41.0356 -75.6592 110° East 380 437 13,300 -780 Descending New York Center
04:13PM 40.9953 -75.5217 111° Southeast 380 437 13,000 -600 Descending New York Center
04:14PM 40.9642 -75.4094 110° East 374 430 12,100 -960 Descending New York Center
04:15PM 40.9333 -75.2947 110° East 351 404 11,100 -1,440 Descending New York Center
04:16PM 40.9006 -75.1717 109° East 328 377 9,200 -1,560 Descending New York Center
04:17PM 40.8689 -75.0656 112° Southeast 315 362 8,000 -1,140 Descending New York Center
04:18PM 40.8394 -74.9622 111° Southeast 309 356 7,000 -960 Descending New York Center
04:19PM 40.8075 -74.8561 112° Southeast 304 350 6,200 -540 Descending New York Center
04:20PM 40.7708 -74.7744 121° Southeast 299 344 6,000 -120 Descending New York Center
04:21PM 40.7350 -74.6653 113° Southeast 294 338 6,000  Level New York Center
04:22PM 40.7786 -74.5994 49° Northeast 224 258 6,000 -180 Level New York Center
04:22PM 40.8000 -74.5833 30° Northeast 273 314 5,800 -780 Descending New York TRACON
04:23PM 40.8667 -74.5333 30° Northeast 272 313 5,000 -480 Descending New York TRACON
04:24PM 40.9028 -74.4967 37° Northeast 258 297 5,000  Level New York Center
04:25PM 40.9736 -74.4344 34° Northeast 269 310 5,000  Level New York Center
04:26PM 41.0131 -74.3681 52° Northeast 255 293 5,000  Level New York Center
04:26PM 41.0333 -74.3333 52° Northeast 240 276 5,000  Level New York TRACON
04:27PM 41.0333 -74.2500 90° East 247 284 5,000  Level New York TRACON
04:28PM 41.0000 -74.1667 118° Southeast 249 287 5,000 -60 Level New York TRACON
04:29PM 40.9667 -74.1000 123° Southeast 248 285 4,900 -540 Descending New York TRACON
04:30PM 40.9167 -74.0667 153° Southeast 222 255 4,000 -960 Descending New York TRACON
04:31PM 40.8500 -74.0667 180° South 208 239 3,000 -900 Descending New York TRACON
04:32PM 40.8000 -74.0833 194° South 190 219 2,300 -720 Descending New York TRACON